createdAt,value
2022-09-27T00:00:38.061Z,11.60
2022-09-27T00:05:43.864Z,11.70
2022-09-27T00:11:26.264Z,11.60
2022-09-27T00:16:43.662Z,11.60
2022-09-27T00:22:00.887Z,11.70
2022-09-27T00:27:26.881Z,11.60
2022-09-27T00:32:55.878Z,11.60
2022-09-27T00:38:14.668Z,11.70
2022-09-27T00:43:58.793Z,11.70
2022-09-27T00:49:27.690Z,11.70
2022-09-27T00:54:34.854Z,11.70
2022-09-27T00:59:47.841Z,11.60
2022-09-27T01:04:59.263Z,11.70
2022-09-27T01:10:10.052Z,11.60
2022-09-27T01:16:04.726Z,11.80
2022-09-27T01:27:56.309Z,11.70
2022-09-27T01:33:04.732Z,11.70
2022-09-27T01:38:42.713Z,11.70
2022-09-27T01:44:29.901Z,11.50
2022-09-27T01:49:47.264Z,11.60
2022-09-27T01:54:56.686Z,11.50
2022-09-27T02:00:14.438Z,11.60
2022-09-27T02:05:30.715Z,11.70
2022-09-27T02:10:56.521Z,11.50
2022-09-27T02:16:43.936Z,11.70
2022-09-27T02:22:46.313Z,11.50
2022-09-27T02:28:06.105Z,11.60
2022-09-27T02:33:17.758Z,11.70
2022-09-27T02:38:43.012Z,11.50
2022-09-27T02:44:10.164Z,11.70
2022-09-27T02:49:38.308Z,11.60
2022-09-27T02:55:24.982Z,11.60
2022-09-27T03:00:41.681Z,11.40
2022-09-27T03:06:37.401Z,11.50
2022-09-27T03:12:08.122Z,11.60
2022-09-27T03:17:27.242Z,11.60
2022-09-27T03:23:10.770Z,11.60
2022-09-27T03:28:29.773Z,11.60
2022-09-27T03:33:52.989Z,11.60
2022-09-27T03:39:13.674Z,11.60
2022-09-27T03:44:25.781Z,11.60
2022-09-27T03:49:36.154Z,11.60
2022-09-27T03:54:41.071Z,11.40
2022-09-27T03:59:43.859Z,11.30
2022-09-27T04:05:50.318Z,11.00
2022-09-27T04:11:07.042Z,11.10
2022-09-27T04:17:00.423Z,10.80
2022-09-27T04:22:39.492Z,10.90
2022-09-27T04:28:06.986Z,10.90
2022-09-27T04:33:12.367Z,10.80
2022-09-27T04:38:46.096Z,10.80
2022-09-27T04:44:03.815Z,10.80
2022-09-27T04:49:13.753Z,10.70
2022-09-27T04:54:23.363Z,10.70
2022-09-27T04:59:35.915Z,10.70
2022-09-27T05:04:59.376Z,10.70
2022-09-27T05:10:11.535Z,10.70
2022-09-27T05:15:14.240Z,10.60
2022-09-27T05:20:18.155Z,10.60
2022-09-27T05:25:28.874Z,10.60
2022-09-27T05:30:31.602Z,10.40
2022-09-27T05:36:30.115Z,10.50
2022-09-27T05:42:05.217Z,10.50
2022-09-27T05:47:18.679Z,10.50
2022-09-27T05:52:46.663Z,10.40
2022-09-27T05:58:10.459Z,10.50
2022-09-27T06:03:48.577Z,10.50
2022-09-27T06:09:10.081Z,10.50
2022-09-27T06:14:20.016Z,10.50
2022-09-27T06:19:33.876Z,10.60
2022-09-27T06:24:36.691Z,10.50
2022-09-27T06:29:46.334Z,10.60
2022-09-27T06:34:59.238Z,10.60
2022-09-27T06:40:03.778Z,10.60
2022-09-27T06:45:28.849Z,10.60
2022-09-27T06:51:17.125Z,10.60
2022-09-27T06:56:36.680Z,10.70
2022-09-27T07:01:58.178Z,10.70
2022-09-27T07:13:58.569Z,10.50
2022-09-27T07:19:09.952Z,10.50
2022-09-27T07:24:12.959Z,10.60
2022-09-27T07:29:21.620Z,10.50
2022-09-27T07:34:29.915Z,10.60
2022-09-27T07:39:33.433Z,10.70
2022-09-27T07:44:38.168Z,10.80
2022-09-27T07:50:04.912Z,10.90
2022-09-27T07:55:19.383Z,10.90
2022-09-27T08:00:32.084Z,10.90
2022-09-27T08:05:45.215Z,11.00
2022-09-27T08:16:23.391Z,11.00
2022-09-27T08:22:05.219Z,11.20
2022-09-27T08:27:33.880Z,11.20
2022-09-27T08:38:43.195Z,11.20
2022-09-27T08:44:06.481Z,11.30
2022-09-27T08:49:32.706Z,11.50
2022-09-27T08:54:38.821Z,11.60
2022-09-27T09:00:01.930Z,11.30
2022-09-27T09:05:33.710Z,11.30
2022-09-27T09:16:31.953Z,11.40
2022-09-27T09:22:19.548Z,11.20
2022-09-27T09:28:03.241Z,11.10
2022-09-27T09:33:48.027Z,10.90
2022-09-27T09:39:16.672Z,10.20
2022-09-27T09:44:39.761Z,9.90
2022-09-27T09:49:48.745Z,9.90
2022-09-27T09:55:12.978Z,9.90
2022-09-27T10:00:18.959Z,9.90
2022-09-27T10:05:47.654Z,9.90
2022-09-27T10:11:02.358Z,10.10
2022-09-27T10:16:28.961Z,10.10
2022-09-27T10:22:00.588Z,10.00
2022-09-27T10:27:26.092Z,10.10
2022-09-27T10:32:55.289Z,10.00
2022-09-27T10:38:29.366Z,10.20
2022-09-27T10:44:24.321Z,10.40
2022-09-27T10:50:08.109Z,10.40
2022-09-27T10:55:38.051Z,10.10
2022-09-27T11:00:41.665Z,10.30
2022-09-27T11:05:47.867Z,10.00
2022-09-27T11:11:20.150Z,10.00
2022-09-27T11:16:55.828Z,9.90
2022-09-27T11:22:50.588Z,9.90
2022-09-27T11:28:29.001Z,10.10
2022-09-27T11:33:42.161Z,9.80
2022-09-27T11:39:14.840Z,9.60
2022-09-27T11:44:35.129Z,9.60
2022-09-27T11:49:43.869Z,9.70
2022-09-27T11:55:09.823Z,9.90
2022-09-27T12:00:47.825Z,9.90
2022-09-27T12:06:36.858Z,10.10
2022-09-27T12:12:22.786Z,10.20
2022-09-27T12:18:03.430Z,10.30
2022-09-27T12:23:36.789Z,10.40
2022-09-27T12:29:22.793Z,10.60
2022-09-27T12:34:39.283Z,10.60
2022-09-27T12:40:00.047Z,10.90
2022-09-27T12:45:15.294Z,11.20
2022-09-27T12:50:37.793Z,11.20
2022-09-27T12:56:27.651Z,11.00
2022-09-27T13:01:42.497Z,10.90
2022-09-27T13:07:38.560Z,10.90
2022-09-27T13:13:00.450Z,10.90
2022-09-27T13:18:48.977Z,10.80
2022-09-27T13:24:05.584Z,10.50
2022-09-27T13:29:31.824Z,10.60
2022-09-27T13:34:54.941Z,10.80
2022-09-27T13:40:32.605Z,10.90
2022-09-27T13:46:24.787Z,11.00
2022-09-27T13:52:23.752Z,11.00
2022-09-27T13:58:13.716Z,11.20
2022-09-27T14:03:45.189Z,11.00
2022-09-27T14:09:06.492Z,10.90
2022-09-27T14:14:28.813Z,11.20
2022-09-27T14:19:39.034Z,11.30
2022-09-27T14:24:41.749Z,11.40
2022-09-27T14:30:06.429Z,11.50
2022-09-27T14:35:41.819Z,11.10
2022-09-27T14:41:18.898Z,11.30
2022-09-27T14:46:45.299Z,10.90
2022-09-27T14:52:13.627Z,10.90
2022-09-27T14:57:29.506Z,10.60
2022-09-27T15:02:50.696Z,10.50
2022-09-27T15:07:58.307Z,10.60
2022-09-27T15:13:14.869Z,10.40
2022-09-27T15:19:14.922Z,10.00
2022-09-27T15:24:38.884Z,9.60
2022-09-27T15:29:41.777Z,9.70
2022-09-27T15:34:44.595Z,9.70
2022-09-27T15:39:47.290Z,9.90
2022-09-27T15:44:58.310Z,9.70
2022-09-27T15:50:27.074Z,9.90
2022-09-27T15:55:32.448Z,9.90
2022-09-27T16:00:36.160Z,9.80
2022-09-27T16:05:56.219Z,9.80
2022-09-27T16:11:08.464Z,9.70
2022-09-27T16:16:36.837Z,9.60
2022-09-27T16:22:09.334Z,9.70
2022-09-27T16:27:45.581Z,9.30
2022-09-27T16:33:01.442Z,8.90
2022-09-27T16:38:13.275Z,9.00
2022-09-27T16:43:29.278Z,9.10
2022-09-27T16:48:34.919Z,9.20
2022-09-27T16:53:56.898Z,9.10
2022-09-27T16:59:11.600Z,8.80
2022-09-27T17:04:32.589Z,8.20
2022-09-27T17:09:35.599Z,8.00
2022-09-27T17:14:38.244Z,8.10
2022-09-27T17:19:41.283Z,7.90
2022-09-27T17:24:44.095Z,7.80
2022-09-27T17:29:46.791Z,7.70
2022-09-27T17:34:49.428Z,7.50
2022-09-27T17:39:52.509Z,7.60
2022-09-27T17:44:55.304Z,7.50
2022-09-27T17:50:16.808Z,7.50
2022-09-27T17:55:21.344Z,7.40
2022-09-27T18:00:25.112Z,7.40
2022-09-27T18:05:50.654Z,7.30
2022-09-27T18:10:54.870Z,7.30
2022-09-27T18:16:22.009Z,7.40
2022-09-27T18:21:46.698Z,7.40
2022-09-27T18:27:10.930Z,7.50
2022-09-27T18:38:02.542Z,7.60
2022-09-27T18:44:00.032Z,7.50
2022-09-27T18:49:11.829Z,7.60
2022-09-27T18:54:24.558Z,7.50
2022-09-27T18:59:33.796Z,7.50
2022-09-27T19:04:38.009Z,7.40
2022-09-27T19:09:58.521Z,7.50
2022-09-27T19:15:03.747Z,7.60
2022-09-27T19:20:23.352Z,7.50
2022-09-27T19:25:30.544Z,7.60
2022-09-27T19:30:33.557Z,7.60
2022-09-27T19:35:36.256Z,7.60
2022-09-27T19:40:38.972Z,7.60
2022-09-27T19:45:41.828Z,7.50
2022-09-27T19:50:44.443Z,7.60
2022-09-27T19:55:53.629Z,7.60
2022-09-27T20:01:06.603Z,7.60
2022-09-27T20:06:56.042Z,7.70
2022-09-27T20:12:05.317Z,7.80
2022-09-27T20:17:25.954Z,7.60
2022-09-27T20:22:47.358Z,7.70
2022-09-27T20:28:13.650Z,7.70
2022-09-27T20:34:04.841Z,7.70
2022-09-27T20:39:19.017Z,7.80
2022-09-27T20:44:28.843Z,7.70
2022-09-27T20:49:32.708Z,7.60
2022-09-27T20:54:41.096Z,7.50
2022-09-27T20:59:44.367Z,7.50
2022-09-27T21:04:49.130Z,7.50
2022-09-27T21:09:52.021Z,7.50
2022-09-27T21:14:54.615Z,7.50
2022-09-27T21:19:57.241Z,7.50
2022-09-27T21:24:59.851Z,7.50
2022-09-27T21:30:02.829Z,7.50
2022-09-27T21:35:06.158Z,7.40
2022-09-27T21:40:09.294Z,7.30
2022-09-27T21:45:12.445Z,7.40
2022-09-27T21:50:15.232Z,7.40
2022-09-27T21:55:17.871Z,7.50
2022-09-27T22:00:20.588Z,7.40
2022-09-27T22:05:47.719Z,7.40
2022-09-27T22:11:04.920Z,7.40
2022-09-27T22:16:28.207Z,7.50
2022-09-27T22:21:52.188Z,7.70
2022-09-27T22:27:17.282Z,7.70
2022-09-27T22:32:53.901Z,7.70
2022-09-27T22:38:10.896Z,7.60
2022-09-27T22:43:37.161Z,7.60
2022-09-27T22:48:56.010Z,7.50
2022-09-27T22:54:12.101Z,7.60
2022-09-27T22:59:20.078Z,7.50
2022-09-27T23:04:50.559Z,7.50
2022-09-27T23:09:54.984Z,7.50
2022-09-27T23:14:57.802Z,7.40
2022-09-27T23:20:02.255Z,7.40
2022-09-27T23:25:05.245Z,7.30
2022-09-27T23:30:11.225Z,7.30
2022-09-27T23:35:15.041Z,7.30
2022-09-27T23:40:17.784Z,7.20
2022-09-27T23:45:20.493Z,7.20
2022-09-27T23:50:26.369Z,7.10
2022-09-27T23:55:29.231Z,7.10
